Time;durP1;ratioP1;P1;durP2;ratioP2;P2;SDS_P1;SDS_P2;PMS_P1;PMS_P2;Temp;Humidity;BMP_temperature;BMP_pressure;BME280_temperature;BME280_humidity;BME280_pressure;Samples;Min_cycle;Max_cycle;Signal;HPM_P1;HPM_P2
2021/12/16 00:08:24;;;;;;;11.03;4.50;;;8.90;1.00;;;;;;5036610;28;20810;-72
2021/12/16 00:10:58;;;;;;;16.40;5.47;;;8.90;1.00;;;;;;5036650;28;20402;-72
2021/12/16 00:34:57;;;;;;;10.10;4.80;;;8.90;31.60;;;;;;5035766;28;20173;-75
2021/12/16 00:37:26;;;;;;;7.03;5.60;;;8.90;31.60;;;;;;5035947;28;20566;-74
2021/12/16 00:39:52;;;;;;;10.87;6.00;;;8.90;41.90;;;;;;5036029;28;21007;-73
2021/12/16 00:42:35;;;;;;;11.73;5.43;;;8.90;45.10;;;;;;5034816;28;20409;-74
2021/12/16 00:47:55;;;;;;;11.90;6.87;;;8.90;52.60;;;;;;5035872;28;20409;-75
2021/12/16 00:58:11;;;;;;;11.10;5.70;;;8.90;66.50;;;;;;5035587;28;20426;-72
2021/12/16 01:00:37;;;;;;;13.83;5.70;;;8.90;68.50;;;;;;5035555;28;20947;-73
2021/12/16 01:03:55;;;;;;;9.17;5.87;;;8.90;69.70;;;;;;5034808;28;20166;-72
2021/12/16 01:06:11;;;;;;;10.67;5.17;;;8.90;69.70;;;;;;5032292;28;20449;-73
2021/12/16 01:09:03;;;;;;;15.27;6.27;;;8.90;71.50;;;;;;5035376;28;20417;-75
2021/12/16 01:36:15;;;;;;;8.00;5.63;;;8.90;79.30;;;;;;5034917;28;20903;-75
2021/12/16 01:57:03;;;;;;;7.63;4.70;;;9.20;84.30;;;;;;5034521;28;20397;-73
2021/12/16 01:59:35;;;;;;;5.83;5.20;;;9.20;83.70;;;;;;5034227;28;20891;-73
2021/12/16 02:02:14;;;;;;;7.90;5.10;;;9.20;82.30;;;;;;5033817;28;20484;-75
2021/12/16 02:05:05;;;;;;;7.20;4.83;;;9.20;82.30;;;;;;5033846;28;20428;-74
2021/12/16 02:07:49;;;;;;;7.27;4.97;;;9.20;82.10;;;;;;5033783;28;20420;-74
2021/12/16 02:10:14;;;;;;;21.70;4.80;;;9.20;81.50;;;;;;5034207;28;20407;-75
2021/12/16 02:31:29;;;;;;;7.00;3.77;;;9.30;85.90;;;;;;5033993;28;20417;-74
2021/12/16 02:36:44;;;;;;;11.23;3.67;;;9.30;88.60;;;;;;5034057;28;20451;-72
2021/12/16 02:39:24;;;;;;;6.77;4.23;;;9.30;87.10;;;;;;5033721;28;20490;-75
2021/12/16 02:41:53;;;;;;;14.37;4.30;;;9.30;87.00;;;;;;5033584;28;20489;-72
2021/12/16 02:49:33;;;;;;;3.93;2.73;;;9.30;86.90;;;;;;5033740;28;20402;-73
2021/12/16 02:51:59;;;;;;;14.40;3.40;;;9.30;86.90;;;;;;5032880;28;20443;-75
2021/12/16 02:54:27;;;;;;;5.00;2.63;;;9.30;86.70;;;;;;5033470;28;20384;-74
2021/12/16 02:56:54;;;;;;;7.73;3.10;;;9.30;86.20;;;;;;5033309;28;20425;-75
2021/12/16 02:59:26;;;;;;;2.57;2.40;;;9.30;86.80;;;;;;5033398;28;20461;-73
2021/12/16 03:01:53;;;;;;;7.43;2.80;;;9.30;87.10;;;;;;5033147;28;20410;-76
2021/12/16 03:04:21;;;;;;;10.73;2.90;;;9.30;86.60;;;;;;5032394;28;20961;-73
2021/12/16 03:06:49;;;;;;;3.27;2.20;;;9.30;87.20;;;;;;5033286;28;20425;-74
2021/12/16 03:09:20;;;;;;;12.97;3.00;;;9.30;86.10;;;;;;5033315;28;20536;-74
2021/12/16 03:12:28;;;;;;;4.93;3.67;;;9.40;87.40;;;;;;5033215;28;20417;-73
2021/12/16 03:14:49;;;;;;;15.87;3.50;;;9.40;87.60;;;;;;5033166;28;20458;-75
2021/12/16 03:17:26;;;;;;;5.07;3.53;;;9.40;85.50;;;;;;5033215;28;20528;-74
2021/12/16 03:20:03;;;;;;;4.87;2.90;;;9.40;86.30;;;;;;5033084;28;20451;-75
2021/12/16 03:25:18;;;;;;;5.80;3.00;;;9.30;86.20;;;;;;5033051;28;20437;-74
2021/12/16 03:28:21;;;;;;;3.30;2.20;;;9.30;85.10;;;;;;5032943;28;20533;-74
2021/12/16 03:36:08;;;;;;;2.83;2.50;;;9.30;85.60;;;;;;5032939;28;20451;-74
2021/12/16 03:38:37;;;;;;;2.67;2.40;;;9.40;85.70;;;;;;5032871;28;20497;-75
2021/12/16 03:41:05;;;;;;;2.20;2.00;;;9.30;85.10;;;;;;5032612;28;20408;-74
2021/12/16 03:43:33;;;;;;;3.03;2.53;;;9.40;86.70;;;;;;5031970;28;20504;-73
2021/12/16 03:48:39;;;;;;;2.70;1.93;;;9.40;84.40;;;;;;5032983;28;20372;-75
2021/12/16 03:51:18;;;;;;;5.93;2.10;;;9.40;84.20;;;;;;5032717;28;20536;-73
2021/12/16 03:53:46;;;;;;;2.23;2.13;;;9.40;84.10;;;;;;5031951;28;20410;-75
2021/12/16 03:56:12;;;;;;;3.20;2.13;;;9.40;83.60;;;;;;5032658;28;20808;-74
2021/12/16 03:58:38;;;;;;;4.23;2.80;;;9.40;81.20;;;;;;5032559;28;20492;-75
2021/12/16 04:01:08;;;;;;;7.27;2.07;;;9.40;79.60;;;;;;5032693;28;20475;-72
2021/12/16 04:03:34;;;;;;;4.90;2.20;;;9.40;79.60;;;;;;5031665;28;20429;-73
2021/12/16 04:06:00;;;;;;;5.10;2.80;;;9.40;80.00;;;;;;5032644;28;20865;-73
2021/12/16 04:08:26;;;;;;;10.83;2.63;;;9.40;79.60;;;;;;5032708;28;20402;-74
2021/12/16 04:11:03;;;;;;;2.23;2.03;;;9.30;79.50;;;;;;5032694;28;20897;-75
2021/12/16 04:13:28;;;;;;;3.43;2.17;;;9.30;79.50;;;;;;5031724;28;20409;-74
2021/12/16 04:15:54;;;;;;;2.13;2.03;;;9.30;79.50;;;;;;5032524;28;20486;-75
2021/12/16 04:18:20;;;;;;;2.30;2.10;;;9.40;79.60;;;;;;5032277;28;20160;-75
2021/12/16 04:20:47;;;;;;;2.40;2.10;;;9.40;79.60;;;;;;5032595;28;20175;-73
2021/12/16 04:23:14;;;;;;;2.40;2.20;;;9.40;79.60;;;;;;5030521;28;20942;-73
2021/12/16 04:25:43;;;;;;;3.83;3.10;;;9.40;79.60;;;;;;5032506;28;20422;-74
2021/12/16 04:28:20;;;;;;;8.97;2.37;;;9.50;80.00;;;;;;5034548;28;20416;-74
2021/12/16 04:30:46;;;;;;;5.10;2.17;;;9.50;79.70;;;;;;5036210;28;20412;-74
2021/12/16 04:33:12;;;;;;;3.87;2.20;;;9.50;78.80;;;;;;5034091;28;20426;-75
2021/12/16 04:35:39;;;;;;;4.50;2.30;;;9.50;78.10;;;;;;5035910;28;20483;-73
2021/12/16 04:38:10;;;;;;;4.00;1.93;;;9.50;75.00;;;;;;5035819;28;20760;-75
2021/12/16 04:40:36;;;;;;;2.27;2.00;;;9.50;74.90;;;;;;5036031;28;21051;-74
2021/12/16 04:43:05;;;;;;;5.90;2.47;;;9.60;75.30;;;;;;5035131;28;20412;-74
2021/12/16 04:45:32;;;;;;;2.30;2.10;;;9.50;70.10;;;;;;5035879;28;20727;-73
2021/12/16 04:47:58;;;;;;;2.23;2.03;;;9.40;70.10;;;;;;5035956;28;20376;-73
2021/12/16 04:50:24;;;;;;;4.80;2.17;;;9.40;70.10;;;;;;5035722;28;20761;-74
2021/12/16 04:52:50;;;;;;;2.90;2.23;;;9.40;70.10;;;;;;5034722;28;20946;-73
2021/12/16 04:55:19;;;;;;;2.27;2.17;;;9.50;70.20;;;;;;5035747;28;20656;-73
2021/12/16 04:57:46;;;;;;;3.83;2.90;;;9.50;70.10;;;;;;5035761;28;20425;-75
2021/12/16 05:00:15;;;;;;;2.43;2.23;;;9.50;70.10;;;;;;5035588;28;20449;-74
2021/12/16 05:02:42;;;;;;;7.20;2.70;;;9.50;68.10;;;;;;5034753;28;20365;-75
2021/12/16 05:05:08;;;;;;;3.80;1.80;;;9.50;70.10;;;;;;5035535;28;20402;-73
2021/12/16 05:07:34;;;;;;;3.53;2.23;;;9.50;70.10;;;;;;5035558;28;20745;-75
2021/12/16 05:10:05;;;;;;;5.43;2.70;;;9.50;70.10;;;;;;5034246;28;20417;-75
2021/12/16 05:12:36;;;;;;;2.17;1.97;;;9.50;70.20;;;;;;5034299;28;20254;-74
2021/12/16 05:15:06;;;;;;;4.90;2.73;;;9.50;68.20;;;;;;5035454;28;20945;-73
2021/12/16 05:17:44;;;;;;;3.00;1.97;;;9.50;69.80;;;;;;5035287;28;20417;-74
2021/12/16 05:20:13;;;;;;;4.13;2.20;;;9.50;66.00;;;;;;5035305;28;20457;-74
2021/12/16 05:26:00;;;;;;;3.40;2.83;;;9.50;66.40;;;;;;5035264;28;20421;-74
2021/12/16 05:28:14;;;;;;;3.50;2.40;;;9.50;62.90;;;;;;5034916;28;20744;-75
2021/12/16 05:30:40;;;;;;;2.53;2.33;;;9.40;63.10;;;;;;5034767;28;20401;-75
2021/12/16 05:33:06;;;;;;;4.60;2.83;;;9.50;62.90;;;;;;5034148;28;20781;-75
2021/12/16 05:35:33;;;;;;;2.50;2.30;;;9.40;63.40;;;;;;5034981;28;20418;-75
2021/12/16 05:37:58;;;;;;;10.90;3.03;;;9.40;63.20;;;;;;5034093;28;20444;-75
2021/12/16 05:40:26;;;;;;;3.73;2.10;;;9.40;64.10;;;;;;5034863;28;20976;-75
2021/12/16 05:42:58;;;;;;;4.10;2.73;;;9.40;65.50;;;;;;5033965;28;20194;-73
2021/12/16 05:45:25;;;;;;;5.23;2.67;;;9.40;64.90;;;;;;5034683;28;20422;-75
2021/12/16 05:47:53;;;;;;;7.43;3.10;;;9.50;65.30;;;;;;5034574;28;20398;-75
2021/12/16 05:50:19;;;;;;;3.40;2.80;;;9.40;63.30;;;;;;5034703;28;20437;-73
2021/12/16 05:52:45;;;;;;;3.17;2.33;;;9.50;65.20;;;;;;5033731;28;20434;-74
2021/12/16 05:55:13;;;;;;;3.33;2.57;;;9.50;65.70;;;;;;5034604;28;20898;-73
2021/12/16 05:57:39;;;;;;;7.40;5.83;;;9.50;66.20;;;;;;5034568;28;20631;-74
2021/12/16 06:00:09;;;;;;;11.23;3.40;;;9.50;64.10;;;;;;5034423;28;20781;-75
2021/12/16 06:02:35;;;;;;;3.20;2.57;;;9.50;65.10;;;;;;5032654;28;20422;-74
2021/12/16 06:05:03;;;;;;;9.00;3.23;;;9.50;64.10;;;;;;5034548;28;20408;-75
2021/12/16 06:07:29;;;;;;;2.70;2.30;;;9.40;62.70;;;;;;5034118;28;20895;-74
2021/12/16 06:09:55;;;;;;;4.40;3.23;;;9.40;64.70;;;;;;5034566;28;20446;-72
2021/12/16 06:12:23;;;;;;;5.73;2.83;;;9.50;64.90;;;;;;5033441;28;20175;-73
2021/12/16 06:15:03;;;;;;;3.20;2.67;;;9.50;63.90;;;;;;5034149;28;20258;-74
2021/12/16 06:28:34;;;;;;;2.90;2.57;;;9.40;63.30;;;;;;5034138;28;20409;-72
2021/12/16 06:31:00;;;;;;;3.50;2.87;;;9.50;63.90;;;;;;5033816;28;20399;-73
2021/12/16 06:33:26;;;;;;;3.10;2.80;;;9.50;63.20;;;;;;5032859;28;20391;-77
2021/12/16 06:35:54;;;;;;;2.30;1.90;;;9.40;60.50;;;;;;5033892;28;20446;-76
2021/12/16 06:38:22;;;;;;;6.23;3.23;;;9.40;60.10;;;;;;5033804;28;20380;-76
2021/12/16 06:40:48;;;;;;;2.60;2.40;;;9.40;53.40;;;;;;5033807;28;20422;-76
2021/12/16 06:43:16;;;;;;;2.93;2.70;;;9.40;50.40;;;;;;5032580;28;20407;-75
2021/12/16 06:45:45;;;;;;;2.27;2.03;;;9.30;41.20;;;;;;5033644;28;20430;-75
2021/12/16 06:48:16;;;;;;;3.20;2.50;;;9.30;39.30;;;;;;5033628;28;20397;-74
2021/12/16 06:53:12;;;;;;;2.30;2.00;;;9.20;31.90;;;;;;5032908;28;20380;-75
2021/12/16 06:56:01;;;;;;;3.17;2.83;;;9.10;31.80;;;;;;5033425;28;20460;-72
2021/12/16 06:58:39;;;;;;;2.73;2.30;;;9.10;29.30;;;;;;5033077;28;20420;-71
2021/12/16 07:01:16;;;;;;;2.77;2.57;;;9.00;26.20;;;;;;5033436;28;20953;-72
2021/12/16 07:03:48;;;;;;;5.93;3.10;;;9.00;25.60;;;;;;5032530;28;20931;-75
2021/12/16 07:06:26;;;;;;;3.97;2.27;;;9.00;26.00;;;;;;5033273;28;20508;-72
2021/12/16 07:08:55;;;;;;;4.40;2.83;;;9.10;26.90;;;;;;5033191;28;20516;-72
2021/12/16 07:11:21;;;;;;;5.07;2.50;;;9.10;25.80;;;;;;5031993;28;20898;-73
2021/12/16 07:13:56;;;;;;;7.60;3.00;;;9.10;25.80;;;;;;5032405;28;20422;-72
2021/12/16 07:16:23;;;;;;;4.33;2.53;;;9.10;25.30;;;;;;5032707;28;20430;-73
2021/12/16 07:18:50;;;;;;;8.50;2.93;;;9.00;19.90;;;;;;5033135;28;20454;-73
2021/12/16 07:21:15;;;;;;;7.40;3.20;;;9.00;19.90;;;;;;5033111;28;20413;-74
2021/12/16 07:23:41;;;;;;;5.93;2.63;;;9.00;19.90;;;;;;5032099;28;20405;-75
2021/12/16 07:26:07;;;;;;;3.70;2.50;;;9.00;19.90;;;;;;5032682;28;20544;-75
2021/12/16 07:28:32;;;;;;;12.93;3.43;;;9.00;17.80;;;;;;5033192;28;20249;-72
2021/12/16 07:30:59;;;;;;;3.97;2.60;;;9.00;18.40;;;;;;5033080;28;20219;-73
2021/12/16 07:33:25;;;;;;;4.13;2.60;;;9.00;16.80;;;;;;5031024;28;20472;-75
2021/12/16 07:35:52;;;;;;;3.63;3.13;;;8.90;11.90;;;;;;5032914;28;20434;-73
2021/12/16 07:38:19;;;;;;;3.63;2.63;;;8.90;8.40;;;;;;5032988;28;20921;-73
2021/12/16 07:40:48;;;;;;;10.60;3.03;;;8.80;7.70;;;;;;5032927;28;20457;-73
2021/12/16 07:45:54;;;;;;;4.60;2.80;;;8.80;7.70;;;;;;5032967;28;20902;-73
2021/12/16 07:48:24;;;;;;;4.80;2.67;;;8.80;7.70;;;;;;5032858;28;20442;-75
2021/12/16 07:50:53;;;;;;;2.80;2.60;;;8.70;4.70;;;;;;5032482;28;20429;-75
2021/12/16 07:53:18;;;;;;;4.37;3.20;;;8.70;2.10;;;;;;5032285;28;20406;-75
2021/12/16 07:55:47;;;;;;;5.10;3.20;;;8.70;1.30;;;;;;5032612;28;20433;-73
2021/12/16 07:58:12;;;;;;;3.57;3.20;;;8.70;1.00;;;;;;5032806;28;20177;-72
2021/12/16 08:00:38;;;;;;;6.70;4.10;;;8.80;1.00;;;;;;5032849;28;20801;-73
2021/12/16 08:03:07;;;;;;;4.47;3.10;;;8.70;1.00;;;;;;5035649;28;20192;-72
2021/12/16 08:05:37;;;;;;;9.50;2.90;;;8.80;1.00;;;;;;5036548;28;20396;-75
2021/12/16 08:08:04;;;;;;;6.10;2.70;;;8.80;1.00;;;;;;5036344;28;20403;-74
2021/12/16 08:10:31;;;;;;;13.60;4.40;;;8.80;1.40;;;;;;5036680;28;20418;-73
2021/12/16 08:12:57;;;;;;;22.63;3.87;;;8.80;1.40;;;;;;5035696;28;20409;-75
2021/12/16 08:15:23;;;;;;;6.20;3.97;;;8.80;1.00;;;;;;5036397;28;20492;-74
2021/12/16 08:17:49;;;;;;;5.97;3.20;;;8.80;1.00;;;;;;5036441;28;20841;-72
2021/12/16 08:20:18;;;;;;;11.10;3.53;;;8.80;1.00;;;;;;5036335;28;20507;-72
2021/12/16 08:22:47;;;;;;;7.53;3.10;;;8.80;1.00;;;;;;5035564;28;20178;-75
2021/12/16 08:25:13;;;;;;;6.30;3.20;;;8.80;1.00;;;;;;5036261;28;20403;-74
2021/12/16 08:27:39;;;;;;;5.50;2.57;;;8.80;1.40;;;;;;5036286;28;20398;-74
2021/12/16 08:30:11;;;;;;;15.47;3.57;;;8.90;2.70;;;;;;5036076;28;20476;-74
2021/12/16 08:32:37;;;;;;;7.63;3.77;;;8.80;1.40;;;;;;5035616;28;20415;-74
2021/12/16 08:35:06;;;;;;;9.37;2.77;;;8.80;1.40;;;;;;5036246;28;20410;-73
2021/12/16 08:37:32;;;;;;;6.80;3.83;;;8.80;1.00;;;;;;5036143;28;20403;-73
2021/12/16 08:39:58;;;;;;;10.30;3.40;;;8.80;1.00;;;;;;5034794;28;20462;-75
2021/12/16 08:42:24;;;;;;;4.70;3.20;;;8.80;1.40;;;;;;5035090;28;20169;-75
2021/12/16 08:44:49;;;;;;;10.13;3.60;;;8.80;2.40;;;;;;5035934;28;20491;-72
2021/12/16 08:47:18;;;;;;;7.90;2.60;;;8.80;2.60;;;;;;5035893;28;20457;-74
2021/12/16 08:49:44;;;;;;;3.43;2.63;;;8.80;1.40;;;;;;5035771;28;20407;-73
2021/12/16 08:52:18;;;;;;;8.47;3.70;;;8.80;1.70;;;;;;5035121;28;20471;-73
2021/12/16 08:54:45;;;;;;;13.67;3.43;;;8.80;1.60;;;;;;5034571;28;20417;-75
2021/12/16 08:57:11;;;;;;;6.13;3.77;;;8.80;1.00;;;;;;5035712;28;20421;-75
2021/12/16 08:59:37;;;;;;;8.10;2.80;;;8.80;1.00;;;;;;5035660;28;20956;-73
2021/12/16 09:02:05;;;;;;;7.27;3.90;;;8.80;1.00;;;;;;5034769;28;20176;-74
2021/12/16 09:04:30;;;;;;;7.97;3.67;;;8.70;1.00;;;;;;5035588;28;20484;-74
2021/12/16 09:07:02;;;;;;;5.80;2.70;;;8.70;1.00;;;;;;5035523;28;20856;-72
2021/12/16 09:09:33;;;;;;;4.17;2.90;;;8.70;1.00;;;;;;5035425;28;20636;-75
2021/12/16 09:12:09;;;;;;;5.70;2.87;;;8.70;1.00;;;;;;5034476;28;20456;-75
2021/12/16 09:14:38;;;;;;;4.33;3.10;;;8.70;1.00;;;;;;5035355;28;20902;-73
2021/12/16 09:17:09;;;;;;;6.27;4.30;;;8.70;1.00;;;;;;5035382;28;20429;-73
2021/12/16 09:19:39;;;;;;;8.97;3.70;;;8.60;1.00;;;;;;5034721;28;20447;-74
2021/12/16 09:22:04;;;;;;;4.03;3.20;;;8.60;1.00;;;;;;5033571;28;20414;-73
2021/12/16 09:24:31;;;;;;;12.20;4.23;;;8.60;1.00;;;;;;5035423;28;20790;-74
2021/12/16 09:26:57;;;;;;;9.93;4.03;;;8.50;1.00;;;;;;5035153;28;20432;-75
2021/12/16 09:29:22;;;;;;;3.73;3.43;;;8.50;1.00;;;;;;5034842;28;20200;-73
2021/12/16 09:31:48;;;;;;;7.10;3.83;;;8.50;1.00;;;;;;5035085;28;20534;-75
2021/12/16 09:34:14;;;;;;;7.77;3.60;;;8.60;1.30;;;;;;5034469;28;20174;-73
2021/12/16 09:36:42;;;;;;;13.27;4.40;;;8.60;1.00;;;;;;5034881;28;20191;-72
2021/12/16 09:39:12;;;;;;;8.10;4.30;;;8.60;1.30;;;;;;5034363;28;20290;-73
2021/12/16 09:41:40;;;;;;;5.37;4.40;;;8.60;1.30;;;;;;5034928;28;20367;-74
2021/12/16 09:44:06;;;;;;;7.43;4.00;;;8.60;1.30;;;;;;5034266;28;20417;-73
2021/12/16 09:46:32;;;;;;;14.67;4.20;;;8.70;3.00;;;;;;5034722;28;20420;-73
2021/12/16 09:48:59;;;;;;;10.07;4.13;;;8.70;2.80;;;;;;5034844;28;20411;-74
2021/12/16 09:51:29;;;;;;;12.17;3.60;;;8.70;1.60;;;;;;5034739;28;20184;-73
2021/12/16 09:54:00;;;;;;;4.20;2.70;;;8.70;4.20;;;;;;5034104;28;20399;-74
2021/12/16 09:56:27;;;;;;;11.90;3.20;;;8.70;4.70;;;;;;5033824;28;20432;-72
2021/12/16 09:58:55;;;;;;;6.90;3.67;;;8.70;2.60;;;;;;5034529;28;20459;-74
2021/12/16 10:01:23;;;;;;;8.30;2.77;;;8.70;2.40;;;;;;5034539;28;20429;-74
2021/12/16 10:03:51;;;;;;;8.17;3.50;;;8.80;5.50;;;;;;5033855;28;20400;-74
2021/12/16 10:06:18;;;;;;;7.70;3.50;;;8.80;4.50;;;;;;5034436;28;20427;-73
2021/12/16 10:08:44;;;;;;;6.63;4.10;;;8.80;4.40;;;;;;5034324;28;20389;-75
2021/12/16 10:11:10;;;;;;;12.50;4.50;;;8.80;1.50;;;;;;5034443;28;20949;-74
2021/12/16 10:18:58;;;;;;;2.60;2.40;;;8.80;1.40;;;;;;5034082;28;20527;-72
2021/12/16 10:21:24;;;;;;;7.60;3.83;;;8.90;1.50;;;;;;5034340;28;20832;-74
2021/12/16 10:23:51;;;;;;;11.90;3.60;;;8.90;1.00;;;;;;5033254;28;20166;-74
2021/12/16 10:26:20;;;;;;;10.07;4.00;;;8.90;1.00;;;;;;5033959;28;20396;-74
2021/12/16 10:28:49;;;;;;;4.53;2.90;;;9.00;1.00;;;;;;5033740;28;20427;-73
2021/12/16 10:31:31;;;;;;;10.80;3.70;;;8.90;1.00;;;;;;5033622;28;20405;-72
2021/12/16 10:34:08;;;;;;;12.73;4.60;;;8.90;1.00;;;;;;5033469;28;20877;-74
2021/12/16 10:36:45;;;;;;;11.77;3.50;;;8.90;1.00;;;;;;5033917;28;20953;-73
2021/12/16 10:39:25;;;;;;;10.57;3.93;;;9.00;1.00;;;;;;5033818;28;20426;-73
2021/12/16 10:42:04;;;;;;;9.93;3.77;;;9.10;1.00;;;;;;5033769;28;20401;-75
2021/12/16 10:44:36;;;;;;;11.03;3.77;;;9.00;1.00;;;;;;5033968;28;20869;-74
2021/12/16 10:47:13;;;;;;;7.13;3.77;;;9.00;1.00;;;;;;5033027;28;20507;-74
2021/12/16 10:49:43;;;;;;;8.30;3.90;;;9.00;1.00;;;;;;5033659;28;20493;-73
2021/12/16 10:52:13;;;;;;;12.67;5.30;;;9.10;1.00;;;;;;5032990;28;20489;-72
2021/12/16 10:54:45;;;;;;;6.00;4.47;;;9.10;1.00;;;;;;5032463;28;20408;-73
2021/12/16 10:57:15;;;;;;;6.47;3.40;;;9.00;1.00;;;;;;5033376;28;20433;-74
2021/12/16 10:59:48;;;;;;;6.70;3.60;;;9.10;1.00;;;;;;5033346;28;20532;-73
2021/12/16 11:02:24;;;;;;;3.23;2.80;;;9.00;1.00;;;;;;5032716;28;20402;-74
2021/12/16 11:05:03;;;;;;;5.70;4.27;;;9.00;1.00;;;;;;5033166;28;20394;-73
2021/12/16 11:07:33;;;;;;;7.80;3.60;;;9.00;1.00;;;;;;5033019;28;20406;-74
2021/12/16 11:10:12;;;;;;;9.70;4.23;;;8.90;1.00;;;;;;5032142;28;20944;-72
2021/12/16 11:12:54;;;;;;;9.60;3.93;;;8.90;1.00;;;;;;5032693;28;20462;-74
2021/12/16 11:15:36;;;;;;;18.57;5.43;;;8.90;1.00;;;;;;5033207;28;20403;-73
2021/12/16 11:18:08;;;;;;;8.40;3.70;;;8.90;1.00;;;;;;5033284;28;20922;-73
2021/12/16 11:20:45;;;;;;;9.97;4.70;;;8.90;1.00;;;;;;5033265;28;20459;-74
2021/12/16 11:23:43;;;;;;;10.53;3.30;;;8.90;1.00;;;;;;5031832;28;20384;-72
2021/12/16 11:26:16;;;;;;;11.13;3.90;;;8.90;1.00;;;;;;5031814;28;20856;-74
2021/12/16 11:28:44;;;;;;;12.10;4.40;;;9.00;1.00;;;;;;5031867;28;20433;-73
2021/12/16 11:31:14;;;;;;;4.17;3.67;;;8.90;1.00;;;;;;5033045;28;20409;-73
2021/12/16 11:33:43;;;;;;;15.43;3.70;;;8.90;1.00;;;;;;5032330;28;20386;-72
2021/12/16 11:36:20;;;;;;;16.93;4.10;;;9.00;1.00;;;;;;5031985;28;20418;-73
2021/12/16 11:38:52;;;;;;;14.20;4.00;;;9.00;1.00;;;;;;5032806;28;20923;-73
2021/12/16 11:41:47;;;;;;;21.37;3.87;;;9.00;1.00;;;;;;5032649;28;20407;-73
2021/12/16 11:44:21;;;;;;;7.23;3.57;;;9.00;1.00;;;;;;5032381;28;20915;-73
2021/12/16 11:47:06;;;;;;;9.07;3.40;;;9.00;1.00;;;;;;5032851;28;20388;-75
2021/12/16 11:49:55;;;;;;;7.50;3.50;;;8.90;1.00;;;;;;5032697;28;20399;-73
2021/12/16 11:52:23;;;;;;;8.00;3.73;;;8.90;1.00;;;;;;5032193;28;20475;-74
2021/12/16 11:54:53;;;;;;;9.20;2.90;;;9.00;1.00;;;;;;5032803;28;20409;-72
2021/12/16 11:57:30;;;;;;;8.80;4.40;;;9.00;1.00;;;;;;5032326;28;20418;-72
2021/12/16 12:00:22;;;;;;;8.80;4.00;;;8.90;1.00;;;;;;5032742;28;20463;-71
2021/12/16 12:02:54;;;;;;;7.03;4.03;;;8.80;1.00;;;;;;5031931;28;20916;-72
2021/12/16 12:05:25;;;;;;;9.10;3.10;;;8.80;1.00;;;;;;5032767;28;20760;-74
2021/12/16 12:08:07;;;;;;;16.67;4.00;;;8.80;1.00;;;;;;5032727;28;20403;-72
2021/12/16 12:10:47;;;;;;;8.47;3.97;;;8.80;1.00;;;;;;5032874;28;20416;-72
2021/12/16 12:13:17;;;;;;;12.30;5.57;;;8.80;1.00;;;;;;5032088;28;20389;-73
2021/12/16 12:16:04;;;;;;;8.10;3.30;;;8.80;1.00;;;;;;5031851;28;20435;-73
2021/12/16 12:18:44;;;;;;;8.80;3.30;;;8.80;1.00;;;;;;5031613;28;20409;-74
2021/12/16 12:21:30;;;;;;;7.83;3.80;;;8.80;1.00;;;;;;5032482;28;20492;-72
2021/12/16 12:24:12;;;;;;;8.37;3.73;;;8.80;1.00;;;;;;5030924;28;20497;-72
2021/12/16 12:26:52;;;;;;;11.10;3.60;;;8.80;1.00;;;;;;5032681;28;20424;-72
2021/12/16 12:29:27;;;;;;;6.63;2.70;;;8.80;1.00;;;;;;5032678;28;20401;-72
2021/12/16 12:31:57;;;;;;;12.20;3.40;;;8.70;1.00;;;;;;5032190;28;20399;-72
2021/12/16 12:34:23;;;;;;;10.47;3.60;;;8.80;1.00;;;;;;5031102;28;20414;-73
2021/12/16 12:36:54;;;;;;;9.83;3.20;;;8.80;1.00;;;;;;5032118;28;20807;-74
2021/12/16 12:39:25;;;;;;;4.13;3.43;;;8.80;1.00;;;;;;5032464;28;20452;-72
2021/12/16 12:41:52;;;;;;;12.80;3.60;;;8.80;1.00;;;;;;5031814;28;20455;-75
2021/12/16 12:44:18;;;;;;;6.43;2.43;;;8.80;1.00;;;;;;5031578;28;20517;-74
2021/12/16 12:46:45;;;;;;;8.37;3.10;;;8.70;1.00;;;;;;5032034;28;20518;-74
2021/12/16 12:49:16;;;;;;;7.93;2.90;;;8.70;1.00;;;;;;5035357;28;20972;-74
2021/12/16 12:51:46;;;;;;;24.53;4.60;;;8.70;1.00;;;;;;5035722;28;20438;-74
2021/12/16 12:54:20;;;;;;;20.27;4.70;;;8.70;1.00;;;;;;5014731;28;20423;-74
2021/12/16 12:56:46;;;;;;;7.03;4.33;;;8.70;1.00;;;;;;5015927;28;20968;-73
2021/12/16 12:59:15;;;;;;;7.50;3.70;;;8.70;1.00;;;;;;5035471;28;20511;-74
2021/12/16 13:01:52;;;;;;;7.60;3.90;;;8.70;1.00;;;;;;5035739;28;20408;-74
2021/12/16 13:04:23;;;;;;;12.50;3.60;;;8.60;1.00;;;;;;5034498;28;20418;-75
2021/12/16 13:07:04;;;;;;;6.10;2.50;;;8.60;1.00;;;;;;5035596;28;20442;-75
2021/12/16 13:09:38;;;;;;;14.07;4.07;;;8.70;1.00;;;;;;5015764;28;20403;-74
2021/12/16 13:12:31;;;;;;;11.57;4.23;;;8.70;1.00;;;;;;5014404;28;20535;-73
2021/12/16 13:15:07;;;;;;;5.97;4.17;;;8.70;1.00;;;;;;5015652;28;20408;-73
2021/12/16 13:23:36;;;;;;;7.53;3.00;;;8.60;1.00;;;;;;5034101;28;20411;-73
2021/12/16 13:29:31;;;;;;;10.73;3.13;;;8.50;1.00;;;;;;5012416;28;20550;-74
2021/12/16 13:32:15;;;;;;;13.40;3.13;;;8.60;1.00;;;;;;5032677;28;20415;-73
2021/12/16 13:34:53;;;;;;;6.90;3.80;;;8.50;1.00;;;;;;5035045;28;20407;-74
2021/12/16 13:37:33;;;;;;;7.00;2.80;;;8.50;1.00;;;;;;5034731;28;20940;-72
2021/12/16 13:40:21;;;;;;;5.90;2.90;;;8.50;1.00;;;;;;5035053;28;20863;-74
2021/12/16 13:42:54;;;;;;;4.20;2.70;;;8.50;1.00;;;;;;5027538;28;20425;-74
2021/12/16 13:45:27;;;;;;;4.80;3.73;;;8.50;1.00;;;;;;5015175;28;20398;-72
2021/12/16 14:00:11;;;;;;;9.20;3.63;;;8.30;1.00;;;;;;5033422;28;20521;-71
2021/12/16 14:07:58;;;;;;;5.50;3.50;;;8.30;1.00;;;;;;5034290;28;20453;-74
2021/12/16 14:11:33;;;;;;;5.10;3.37;;;8.30;1.00;;;;;;5032650;28;20932;-73
2021/12/16 14:25:11;;;;;;;5.43;3.13;;;8.00;1.00;;;;;;5034234;28;20494;-75
2021/12/16 14:50:27;;;;;;;10.93;3.87;;;7.60;1.00;;;;;;5022833;28;20430;-73
2021/12/16 14:52:53;;;;;;;6.27;3.43;;;7.60;1.00;;;;;;5032688;28;21179;-74
2021/12/16 14:55:20;;;;;;;12.53;3.87;;;7.50;1.00;;;;;;5033419;28;20463;-73
2021/12/16 14:57:49;;;;;;;9.13;4.63;;;7.60;1.00;;;;;;5033356;28;20414;-74
2021/12/16 15:00:39;;;;;;;3.87;3.23;;;7.50;1.00;;;;;;5033163;28;20453;-73
2021/12/16 15:03:16;;;;;;;7.27;3.37;;;7.50;1.00;;;;;;5032139;28;20410;-72
2021/12/16 15:05:46;;;;;;;5.90;3.80;;;7.50;1.00;;;;;;5032672;28;20460;-73
2021/12/16 15:08:51;;;;;;;7.00;3.20;;;7.50;1.00;;;;;;5033226;28;20398;-73
2021/12/16 15:11:31;;;;;;;3.87;3.57;;;7.40;1.00;;;;;;5032909;28;20810;-72
2021/12/16 15:14:02;;;;;;;13.70;4.40;;;7.50;1.00;;;;;;5032559;28;20400;-74
2021/12/16 15:39:10;;;;;;;3.63;3.27;;;7.60;1.00;;;;;;5022557;28;20514;-72
2021/12/16 15:44:19;;;;;;;11.53;3.60;;;7.40;1.00;;;;;;5022437;28;20507;-74
2021/12/16 15:46:50;;;;;;;5.97;4.40;;;7.30;1.00;;;;;;5016178;28;20479;-74
2021/12/16 15:49:17;;;;;;;2.73;2.50;;;7.30;1.00;;;;;;5032909;28;20394;-74
2021/12/16 15:51:43;;;;;;;6.23;3.40;;;7.30;1.00;;;;;;5031931;28;20866;-74
2021/12/16 15:54:10;;;;;;;3.87;2.63;;;7.30;1.00;;;;;;5027972;28;20454;-74
2021/12/16 15:56:40;;;;;;;4.40;4.00;;;7.30;1.00;;;;;;5012621;28;20215;-75
2021/12/16 15:59:11;;;;;;;5.33;3.60;;;7.30;1.00;;;;;;5032444;28;20943;-72
2021/12/16 16:01:46;;;;;;;6.13;3.97;;;7.40;1.00;;;;;;5031830;28;20480;-72
2021/12/16 16:04:15;;;;;;;4.67;3.50;;;7.40;1.00;;;;;;5030830;28;20405;-74
2021/12/16 16:06:43;;;;;;;3.20;2.90;;;7.50;1.00;;;;;;5032137;28;20890;-74
2021/12/16 16:09:13;;;;;;;4.13;3.40;;;7.50;1.00;;;;;;5032386;28;20503;-73
2021/12/16 16:11:46;;;;;;;10.90;4.87;;;7.50;1.00;;;;;;5031786;28;20469;-74
2021/12/16 16:14:13;;;;;;;6.30;3.30;;;7.60;1.00;;;;;;5031616;28;20406;-74
2021/12/16 16:16:46;;;;;;;8.70;3.10;;;7.70;1.00;;;;;;5031862;28;20994;-74
2021/12/16 16:19:17;;;;;;;5.80;3.80;;;7.70;1.00;;;;;;5032139;28;20461;-74
2021/12/16 16:21:46;;;;;;;9.13;3.20;;;7.70;1.00;;;;;;5031761;28;20540;-74
2021/12/16 16:24:30;;;;;;;4.60;3.00;;;7.60;1.00;;;;;;5034787;28;20400;-73
2021/12/16 16:26:58;;;;;;;5.53;3.10;;;7.60;1.00;;;;;;5035535;28;20444;-75
2021/12/16 16:29:25;;;;;;;5.63;3.10;;;7.60;1.00;;;;;;5036004;28;20409;-72
2021/12/16 16:31:52;;;;;;;3.43;3.13;;;7.60;1.00;;;;;;5035358;28;20414;-75
2021/12/16 16:34:30;;;;;;;3.70;3.00;;;7.60;1.00;;;;;;5035237;28;20410;-74
2021/12/16 16:37:04;;;;;;;7.40;4.03;;;7.70;1.00;;;;;;5035506;28;20788;-73
2021/12/16 16:39:33;;;;;;;7.20;4.47;;;7.60;1.00;;;;;;5034920;28;20460;-75
2021/12/16 16:42:07;;;;;;;5.83;3.40;;;7.60;1.00;;;;;;5033626;28;20427;-75
2021/12/16 16:44:34;;;;;;;5.80;3.30;;;7.60;1.00;;;;;;5035979;28;20914;-75
2021/12/16 16:47:14;;;;;;;6.97;3.03;;;7.60;1.00;;;;;;5035159;28;20434;-73
2021/12/16 16:49:49;;;;;;;4.23;3.63;;;7.70;1.00;;;;;;5035019;28;20417;-72
2021/12/16 16:52:40;;;;;;;5.07;3.30;;;7.70;1.00;;;;;;5033933;28;20517;-74
2021/12/16 16:55:15;;;;;;;4.07;3.10;;;7.70;1.00;;;;;;5034730;28;20445;-74
2021/12/16 16:57:49;;;;;;;6.20;3.07;;;7.70;1.00;;;;;;5034497;28;20414;-72
2021/12/16 17:00:46;;;;;;;5.30;3.30;;;7.70;1.00;;;;;;5035368;28;20587;-74
2021/12/16 17:03:16;;;;;;;7.33;3.60;;;7.60;1.00;;;;;;5034394;28;20403;-75
2021/12/16 17:05:57;;;;;;;3.90;3.57;;;7.60;1.00;;;;;;5026795;28;20448;-74
2021/12/16 17:08:34;;;;;;;4.93;3.90;;;7.50;1.00;;;;;;5015838;28;20399;-75
2021/12/16 17:11:09;;;;;;;8.67;4.63;;;7.50;1.00;;;;;;5028075;28;20962;-74
2021/12/16 17:13:52;;;;;;;12.83;4.77;;;7.40;1.00;;;;;;5034207;28;20774;-75